Latest Weather Observations for Coonamble

IDN60801

Issued at 9:35 am EDT Friday 28 November 2014 (issued every 30 minutes, with the page automatically refreshed every 10 minutes)

About weather observations | Map of weather stations | Latest weather observations for NSW | Other Formats
Station Details ID: 051161 Name: COONAMBLE AIRPORT AWS Lat: -30.98 Lon: 148.38 Height: 181.3 m
Data from the previous 72 hours. | See also: Recent months at Coonamble
Date/Time
EDT
Temp
°C
App
Temp
°C
Dew
Point
Rel
Hum
%
Delta-T
°C
Wind Press
QNH
hPa
Press
MSL
hPa
Rain
since 9 am
mm
Dir
 
Spd
km/h
Gust
km/h
Spd
kts
Gust
kts
28/09:30am 25.1 20.3 10.2 39 8.3 ENE 26 37 14 20 1019.1 1018.3 0.0
28/09:00am 24.2 19.9 10.8 43 7.5 E 24 33 13 18 1019.2 1018.4 0.0
28/08:30am 23.2 18.3 11.3 47 6.7 E 28 37 15 20 1019.2 1018.4 0.0
28/08:00am 21.4 16.2 11.7 54 5.4 E 30 39 16 21 1019.2 1018.4 0.0
28/07:30am 20.6 15.6 12.1 58 4.8 ENE 30 39 16 21 1018.9 1018.1 0.0
28/07:00am 19.8 16.3 12.3 62 4.2 ENE 22 32 12 17 1018.5 1017.7 0.0
28/06:30am 18.9 16.0 12.2 65 3.8 E 19 26 10 14 1018.1 1017.3 0.0
28/06:00am 18.2 15.7 12.2 68 3.3 E 17 22 9 12 1017.9 1017.1 0.0
28/05:30am 18.1 15.5 12.1 68 3.3 E 17 22 9 12 1017.6 1016.8 0.0
28/05:00am 18.5 16.0 12.3 67 3.5 E 17 28 9 15 1017.2 1016.5 0.0
28/04:30am 18.9 15.8 12.2 65 3.8 E 20 28 11 15 1017.1 1016.4 0.0
28/04:00am 19.2 16.1 12.2 64 3.9 E 20 30 11 16 1016.8 1016.1 0.0
28/03:30am 19.5 16.0 12.3 63 4.1 E 22 28 12 15 1017.0 1016.3 0.0
28/03:00am 19.8 15.9 12.1 61 4.3 E 24 32 13 17 1017.1 1016.4 0.0
28/02:30am 20.3 15.6 12.0 59 4.7 E 28 39 15 21 1017.0 1016.3 0.0
28/02:00am 20.8 15.3 12.0 57 5.0 E 32 44 17 24 1017.1 1016.4 0.0
28/01:30am 21.2 16.7 11.5 54 5.4 E 26 35 14 19 1017.0 1016.3 0.0
28/01:00am 21.7 17.2 11.4 52 5.8 E 26 37 14 20 1017.0 1016.3 0.0
28/12:31am 22.2 17.4 11.6 51 6.0 E 28 46 15 25 1016.9 1016.2 0.0
28/12:30am 22.2 17.0 11.6 51 6.0 E 30 46 16 25 1016.9 1016.2 0.0
28/12:00am 22.7 17.9 11.7 49 6.2 E 28 46 15 25 1016.8 1016.1 0.0
 
Date/Time
EDT
Temp
°C
App
Temp
°C
Dew
Point
Rel
Hum
%
Delta-T
°C
Wind Press
QNH
hPa
Press
MSL
hPa
Rain
since 9 am
mm
Dir
 
Spd
km/h
Gust
km/h
Spd
kts
Gust
kts
27/11:49pm 22.9 17.4 11.9 50 6.3 E 32 50 17 27 1016.8 1016.1 0.0
27/11:30pm 23.3 17.3 12.0 49 6.4 E 35 48 19 26 1016.7 1016.0 0.0
27/11:00pm 24.0 17.7 11.0 44 7.3 E 35 48 19 26 1016.5 1015.7 0.0
27/10:30pm 25.3 19.4 9.2 36 8.8 E 30 39 16 21 1016.1 1015.3 0.0
27/10:00pm 26.8 22.7 8.7 32 9.9 E 20 32 11 17 1015.6 1014.8 0.0
27/09:30pm 27.4 23.4 8.3 30 10.4 ESE 19 24 10 13 1015.2 1014.4 0.0
27/09:00pm 28.1 24.0 7.9 28 11.0 ESE 19 26 10 14 1014.8 1014.0 0.0
27/08:30pm 28.9 24.4 6.9 25 11.8 SSE 20 26 11 14 1014.2 1013.4 0.0
27/08:00pm 29.4 25.6 4.1 20 13.0 SSE 13 17 7 9 1013.9 1013.1 0.0
27/07:30pm 31.2 26.5 3.3 17 14.3 S 17 22 9 12 1013.7 1012.9 0.0
27/07:00pm 31.7 26.6 2.8 16 14.8 S 19 28 10 15 1013.4 1012.6 0.0
27/06:30pm 32.6 26.9 2.6 15 15.3 SSE 22 30 12 16 1013.2 1012.4 0.0
27/06:00pm 33.0 28.1 2.0 14 15.7 SE 17 24 9 13 1013.1 1012.3 0.0
27/05:30pm 33.8 28.4 2.6 14 16.1 S 20 33 11 18 1013.0 1012.2 0.0
27/05:00pm 32.9 27.1 -0.2 12 16.2 S 20 33 11 18 1013.2 1012.4 0.0
27/04:30pm 33.5 27.4 0.2 12 16.5 S 22 32 12 17 1013.4 1012.6 0.0
27/04:12pm 33.2 25.9 0.0 12 16.3 S 28 35 15 19 1013.5 1012.7 0.0
27/04:00pm 32.9 29.3 0.9 13 15.9 SSE 9 15 5 8 1013.6 1012.8 0.0
27/03:30pm 33.1 27.7 1.0 13 16.0 SSE 19 37 10 20 1014.1 1013.3 0.0
27/03:00pm 33.5 27.7 0.2 12 16.5 SW 20 35 11 19 1014.3 1013.5 0.0
27/02:30pm 33.0 27.8 -0.2 12 16.3 S 17 22 9 12 1014.7 1013.9 0.0
27/02:00pm 32.1 26.3 0.2 13 15.6 SSW 20 35 11 19 1015.0 1014.2 0.0
27/01:30pm 32.2 26.7 0.3 13 15.7 S 19 30 10 16 1015.3 1014.5 0.0
27/01:00pm 30.9 25.4 0.3 14 14.9 S 19 30 10 16 1015.7 1014.9 0.0
27/12:30pm 31.8 26.5 2.0 15 15.0 S 19 28 10 15 1015.9 1015.1 0.0
27/12:00pm 30.8 24.3 0.2 14 14.8 SW 24 35 13 19 1016.3 1015.5 0.0
27/11:30am 31.2 26.8 4.9 19 13.9 SSE 17 32 9 17 1016.4 1015.6 0.0
27/11:00am 30.0 23.8 2.3 17 13.9 S 24 32 13 17 1016.8 1016.1 0.0
27/10:30am 28.6 26.8 9.3 30 10.8 S 9 17 5 9 1017.0 1016.3 0.0
27/10:00am 27.5 25.2 11.9 38 9.0 SSE 15 24 8 13 1017.1 1016.4 0.0
27/09:30am 26.0 24.0 12.8 44 7.7 SSE 15 20 8 11 1017.4 1016.6 0.0
27/09:00am 25.0 23.3 12.6 46 7.2 SSE 13 20 7 11 1017.6 1016.8 0.0
27/08:30am 24.2 21.7 12.2 47 6.9 SE 17 26 9 14 1017.5 1016.7 0.0
27/08:00am 22.3 19.1 11.1 49 6.3 SSE 19 28 10 15 1017.2 1016.5 0.0
27/07:30am 20.6 16.7 6.9 41 7.0 S 17 24 9 13 1017.0 1016.3 0.0
27/07:00am 18.3 13.4 2.2 34 7.4 S 17 24 9 13 1016.6 1015.9 0.0
27/06:30am 17.4 12.0 1.0 33 7.3 S 19 24 10 13 1016.2 1015.4 0.0
27/06:00am 16.9 11.3 1.0 34 7.0 S 20 26 11 14 1015.9 1015.1 0.0
27/05:30am 16.4 10.9 0.9 35 6.8 S 19 22 10 12 1015.6 1014.8 0.0
27/05:00am 16.6 11.1 0.3 33 7.1 S 19 22 10 12 1015.4 1014.6 0.0
27/04:30am 17.2 11.7 0.4 32 7.4 S 19 20 10 11 1015.2 1014.4 0.0
27/04:00am 16.9 12.1 0.1 32 7.3 SSW 15 20 8 11 1015.1 1014.3 0.0
27/03:30am 16.4 12.0 0.1 33 7.1 SSW 13 15 7 8 1015.2 1014.4 0.0
27/03:00am 17.4 12.5 -0.3 30 7.7 S 15 17 8 9 1015.2 1014.4 0.0
27/02:30am 18.5 13.2 -0.8 27 8.4 S 17 20 9 11 1015.2 1014.4 0.0
27/02:00am 18.7 13.7 -1.2 26 8.6 S 15 17 8 9 1015.4 1014.6 0.0
27/01:30am 19.5 14.4 -1.6 24 9.1 S 15 17 8 9 1015.7 1014.9 0.0
27/01:00am 20.6 15.1 -1.8 22 9.7 S 17 20 9 11 1015.9 1015.1 0.0
27/12:30am 20.9 15.4 -2.2 21 9.9 S 17 22 9 12 1016.1 1015.3 0.0
27/12:00am 20.3 15.2 -2.1 22 9.6 SSW 15 19 8 10 1016.5 1015.7 0.0
 
Date/Time
EDT
Temp
°C
App
Temp
°C
Dew
Point
Rel
Hum
%
Delta-T
°C
Wind Press
QNH
hPa
Press
MSL
hPa
Rain
since 9 am
mm
Dir
 
Spd
km/h
Gust
km/h
Spd
kts
Gust
kts
26/11:30pm 20.7 15.2 -2.4 21 9.9 SSW 17 19 9 10 1016.5 1015.7 0.0
26/11:00pm 20.7 15.5 -2.4 21 9.9 SSW 15 17 8 9 1016.5 1015.7 0.0
26/10:30pm 21.4 16.6 -2.5 20 10.3 SSW 13 15 7 8 1016.4 1015.6 0.0
26/10:00pm 21.6 17.5 -3.0 19 10.5 SSW 9 11 5 6 1016.3 1015.5 0.0
26/09:30pm 22.5 17.9 -3.7 17 11.1 SSW 11 13 6 7 1016.0 1015.2 0.0
26/09:00pm 23.3 18.0 -3.9 16 11.6 SSW 15 19 8 10 1015.7 1014.9 0.0
26/08:30pm 24.8 20.4 -5.5 13 12.7 SSW 9 13 5 7 1015.2 1014.4 0.0
26/08:00pm 25.9 20.3 -6.8 11 13.5 SSW 15 19 8 10 1015.0 1014.2 0.0
26/07:30pm 28.6 22.0 -8.8 8 15.3 SSW 19 22 10 12 1014.6 1013.8 0.0
26/07:00pm 29.9 22.8 -7.9 8 15.8 SSW 22 28 12 15 1014.2 1013.4 0.0
26/06:30pm 30.7 23.2 -9.0 7 16.5 SW 24 35 13 19 1013.8 1013.0 0.0
26/06:00pm 31.2 24.5 -8.6 7 16.7 SW 20 30 11 16 1013.6 1012.8 0.0
26/05:30pm 31.6 24.4 -5.1 9 16.4 SW 24 35 13 19 1013.6 1012.8 0.0
26/05:00pm 32.3 25.2 -4.6 9 16.7 SW 24 33 13 18 1013.7 1012.9 0.0
26/04:30pm 32.1 26.3 -4.7 9 16.6 SW 17 24 9 13 1013.8 1013.0 0.0
26/04:00pm 32.5 26.3 -4.4 9 16.8 SSW 19 33 10 18 1013.8 1013.0 0.0
26/03:30pm 31.7 25.9 -5.0 9 16.4 SSW 17 32 9 17 1014.2 1013.4 0.0
26/03:00pm 31.6 26.1 -5.1 9 16.4 SSW 15 28 8 15 1014.6 1013.8 0.0
26/02:30pm 31.9 25.7 -4.9 9 16.5 W 19 24 10 13 1014.7 1013.9 0.0
26/02:00pm 31.8 26.5 -3.5 10 16.2 WSW 15 28 8 15 1015.1 1014.3 0.0
26/01:30pm 30.8 24.9 -5.7 9 16.0 WSW 17 28 9 15 1015.5 1014.7 0.0
26/01:00pm 30.5 24.9 -3.3 11 15.4 W 17 24 9 13 1015.9 1015.1 0.0
26/12:30pm 29.5 25.0 -2.9 12 14.8 W 11 22 6 12 1016.2 1015.4 0.0
26/12:00pm 29.2 25.9 -0.1 15 14.0 S 7 15 4 8 1016.5 1015.7 0.0
26/11:30am 28.7 24.9 -0.5 15 13.8 SSW 9 15 5 8 1016.8 1016.1 0.0
26/11:00am 28.2 24.6 0.9 17 13.2 SE 9 19 5 10 1017.2 1016.5 0.0
26/10:30am 26.9 23.5 4.0 23 11.6 S 11 20 6 11 1017.4 1016.6 0.0
26/10:00am 24.8 22.4 8.7 36 8.7 SSW 11 15 6 8 1017.5 1016.7 0.0
26/09:30am 21.9 19.4 9.8 46 6.6 S 13 17 7 9 1017.7 1016.9 0.0
26/09:00am 19.3 17.2 11.1 59 4.5 S 13 17 7 9 1017.5 1016.7 0.0
26/08:30am 17.0 13.8 9.9 63 3.8 SSW 17 20 9 11 1017.4 1016.6 0.0
26/08:00am 16.4 13.0 7.6 56 4.4 S 15 20 8 11 1017.1 1016.4 0.0
26/07:30am 15.5 12.1 6.0 53 4.6 S 13 17 7 9 1016.9 1016.2 0.0
26/07:00am 14.7 11.4 4.7 51 4.7 SSW 11 15 6 8 1016.5 1015.7 0.0
26/06:30am 14.0 11.0 4.0 51 4.6 SSW 9 13 5 7 1016.3 1015.5 0.0
26/06:00am 14.0 9.4 3.8 50 4.7 SSW 17 19 9 10 1016.2 1015.4 0.0
26/05:30am 14.6 9.9 3.1 46 5.2 SSW 17 19 9 10 1016.0 1015.2 0.0
26/05:00am 14.5 10.4 2.4 44 5.4 S 13 17 7 9 1015.9 1015.1 0.0
26/04:30am 15.7 11.1 1.4 38 6.3 S 15 19 8 10 1015.7 1014.9 0.0
26/04:00am 17.1 11.5 1.1 34 7.1 S 20 24 11 13 1015.7 1014.9 0.0
26/03:30am 17.7 12.6 0.8 32 7.5 S 17 22 9 12 1015.7 1014.9 0.0
26/03:00am 17.1 12.5 1.5 35 7.0 S 15 17 8 9 1015.5 1014.7 0.0
26/02:30am 18.3 12.8 0.9 31 7.8 S 19 24 10 13 1015.8 1015.0 0.0
26/02:00am 18.5 13.5 1.5 32 7.7 S 17 22 9 12 1016.0 1015.2 0.0
26/01:30am 16.9 12.9 2.9 39 6.5 S 13 15 7 8 1016.2 1015.4 0.0
26/01:00am 17.5 13.4 2.3 36 6.9 S 13 13 7 7 1016.6 1015.9 0.0
26/12:30am 18.8 14.5 1.3 31 7.9 S 13 17 7 9 1016.9 1016.2 0.0
26/12:00am 18.5 14.3 1.5 32 7.7 S 13 17 7 9 1017.1 1016.4 0.0
 
Date/Time
EDT
Temp
°C
App
Temp
°C
Dew
Point
Rel
Hum
%
Delta-T
°C
Wind Press
QNH
hPa
Press
MSL
hPa
Rain
since 9 am
mm
Dir
 
Spd
km/h
Gust
km/h
Spd
kts
Gust
kts
25/11:30pm 18.7 14.4 1.2 31 7.9 S 13 19 7 10 1017.4 1016.6 0.0
25/11:00pm 19.0 14.3 0.6 29 8.2 SSW 15 17 8 9 1017.7 1016.9 0.0
25/10:30pm 19.3 14.5 0.4 28 8.4 SSW 15 19 8 10 1017.6 1016.8 0.0
25/10:00pm 19.2 14.5 0.8 29 8.3 SSW 15 19 8 10 1017.2 1016.5 0.0
25/09:30pm 19.3 14.6 0.8 29 8.3 SSW 15 17 8 9 1017.0 1016.3 0.0
25/09:00pm 19.0 14.3 1.1 30 8.1 SSW 15 17 8 9 1017.0 1016.3 0.0
25/08:30pm 19.3 15.0 1.3 30 8.2 SSW 13 15 7 8 1016.7 1016.0 0.0
25/08:00pm 21.0 16.6 0.2 25 9.4 SSW 13 17 7 9 1016.4 1015.6 0.0
25/07:30pm 22.9 17.4 -1.9 19 10.9 SSW 17 22 9 12 1016.4 1015.6 0.0
25/07:00pm 24.3 18.2 -2.3 17 11.7 SSW 20 30 11 16 1015.8 1015.0 0.0
25/06:30pm 25.2 18.3 -6.2 12 13.0 SSW 22 32 12 17 1015.7 1014.9 0.0
25/06:00pm 25.9 18.3 -9.4 9 13.9 SSW 24 30 13 16 1015.3 1014.5 0.0
25/05:30pm 26.9 18.9 -10.1 8 14.5 S 26 33 14 18 1015.2 1014.4 0.0
25/05:00pm 27.1 19.0 -11.6 7 14.8 S 26 33 14 18 1015.5 1014.7 0.0
25/04:30pm 26.7 19.3 -7.4 10 14.0 SSW 24 32 13 17 1015.9 1015.1 0.0
25/04:00pm 25.3 18.7 -3.2 15 12.5 S 22 30 12 16 1016.3 1015.5 0.0
25/03:30pm 24.9 19.2 3.0 24 10.7 S 22 28 12 15 1016.5 1015.7 0.0
25/03:00pm 24.6 19.2 4.4 27 10.1 S 22 30 12 16 1016.6 1015.9 0.0
25/02:30pm 24.7 18.8 6.0 30 9.7 S 26 33 14 18 1016.6 1015.9 0.0
25/02:00pm 24.5 18.6 5.8 30 9.6 S 26 35 14 19 1016.8 1016.1 0.0
25/01:30pm 24.2 18.2 6.9 33 9.1 S 28 35 15 19 1016.9 1016.2 0.0
25/01:00pm 24.1 17.6 6.4 32 9.2 SSW 30 39 16 21 1017.4 1016.6 0.0
25/12:30pm 24.1 17.8 7.3 34 8.9 S 30 41 16 22 1017.2 1016.5 0.0
25/12:00pm 24.1 17.8 8.9 38 8.2 S 32 41 17 22 1017.4 1016.6 0.0
25/11:30am 24.1 17.9 9.3 39 8.1 S 32 41 17 22 1017.2 1016.5 0.0
25/11:00am 24.1 19.4 13.3 51 6.3 S 30 39 16 21 1017.0 1016.3 0.0
25/10:30am 23.2 19.3 15.5 62 4.7 S 30 39 16 21 1017.2 1016.5 0.0
25/10:00am 22.2 18.8 16.7 71 3.4 SSW 30 41 16 22 1017.1 1016.4 0.0

Other Formats:

Comma delimited format used in spreadsheet applications
http://www.bom.gov.au/fwo/IDN60801/IDN60801.95718.axf

JavaScript Object Notation format (JSON) in row-major order
http://www.bom.gov.au/fwo/IDN60801/IDN60801.95718.json